sensor_id;sensor_type;location;lat;lon;timestamp;P1;durP1;ratioP1;P2;durP2;ratioP2
70014;SDS011;57358;51.094;6.760;2023-05-17T00:01:44;4.45;;;4.25;;
70014;SDS011;57358;51.094;6.760;2023-05-17T00:04:10;4.40;;;4.10;;
70014;SDS011;57358;51.094;6.760;2023-05-17T00:06:39;5.50;;;5.10;;
70014;SDS011;57358;51.094;6.760;2023-05-17T00:09:06;5.28;;;4.38;;
70014;SDS011;57358;51.094;6.760;2023-05-17T00:11:32;4.18;;;3.97;;
70014;SDS011;57358;51.094;6.760;2023-05-17T00:13:59;4.72;;;4.38;;
70014;SDS011;57358;51.094;6.760;2023-05-17T00:16:26;4.00;;;3.80;;
70014;SDS011;57358;51.094;6.760;2023-05-17T00:18:52;4.13;;;3.92;;
70014;SDS011;57358;51.094;6.760;2023-05-17T00:21:19;4.03;;;3.83;;
70014;SDS011;57358;51.094;6.760;2023-05-17T00:23:46;4.03;;;3.83;;
70014;SDS011;57358;51.094;6.760;2023-05-17T00:26:12;4.07;;;3.88;;
70014;SDS011;57358;51.094;6.760;2023-05-17T00:28:39;4.78;;;4.18;;
70014;SDS011;57358;51.094;6.760;2023-05-17T00:31:05;4.78;;;4.32;;
70014;SDS011;57358;51.094;6.760;2023-05-17T00:33:32;4.15;;;3.90;;
70014;SDS011;57358;51.094;6.760;2023-05-17T00:35:58;4.63;;;4.32;;
70014;SDS011;57358;51.094;6.760;2023-05-17T00:38:25;4.55;;;4.30;;
70014;SDS011;57358;51.094;6.760;2023-05-17T00:40:51;4.13;;;3.92;;
70014;SDS011;57358;51.094;6.760;2023-05-17T00:43:19;4.80;;;4.40;;
70014;SDS011;57358;51.094;6.760;2023-05-17T00:45:45;4.65;;;4.35;;
70014;SDS011;57358;51.094;6.760;2023-05-17T00:48:14;4.22;;;3.92;;
70014;SDS011;57358;51.094;6.760;2023-05-17T00:50:41;4.53;;;4.32;;
70014;SDS011;57358;51.094;6.760;2023-05-17T00:53:08;4.05;;;3.85;;
70014;SDS011;57358;51.094;6.760;2023-05-17T00:55:35;5.00;;;4.55;;
70014;SDS011;57358;51.094;6.760;2023-05-17T00:58:01;4.07;;;3.88;;
70014;SDS011;57358;51.094;6.760;2023-05-17T01:00:30;4.30;;;4.10;;
70014;SDS011;57358;51.094;6.760;2023-05-17T01:02:58;4.15;;;3.95;;
70014;SDS011;57358;51.094;6.760;2023-05-17T01:05:25;4.10;;;3.90;;
70014;SDS011;57358;51.094;6.760;2023-05-17T01:07:54;4.90;;;4.60;;
70014;SDS011;57358;51.094;6.760;2023-05-17T01:10:22;4.72;;;4.43;;
70014;SDS011;57358;51.094;6.760;2023-05-17T01:12:55;4.03;;;3.83;;
70014;SDS011;57358;51.094;6.760;2023-05-17T01:15:31;4.53;;;4.22;;
70014;SDS011;57358;51.094;6.760;2023-05-17T01:20:57;4.72;;;4.43;;
70014;SDS011;57358;51.094;6.760;2023-05-17T01:26:09;4.60;;;4.37;;
70014;SDS011;57358;51.094;6.760;2023-05-17T01:28:42;4.93;;;4.53;;
70014;SDS011;57358;51.094;6.760;2023-05-17T01:31:11;4.10;;;3.90;;
70014;SDS011;57358;51.094;6.760;2023-05-17T01:33:38;4.55;;;4.30;;
70014;SDS011;57358;51.094;6.760;2023-05-17T01:36:05;4.85;;;4.63;;
70014;SDS011;57358;51.094;6.760;2023-05-17T01:38:32;4.47;;;4.28;;
70014;SDS011;57358;51.094;6.760;2023-05-17T01:47:06;4.88;;;4.57;;
70014;SDS011;57358;51.094;6.760;2023-05-17T01:49:41;4.78;;;4.47;;
70014;SDS011;57358;51.094;6.760;2023-05-17T01:57:51;5.65;;;5.22;;
70014;SDS011;57358;51.094;6.760;2023-05-17T02:00:21;4.80;;;4.40;;
70014;SDS011;57358;51.094;6.760;2023-05-17T02:02:52;5.60;;;4.90;;
70014;SDS011;57358;51.094;6.760;2023-05-17T02:05:18;8.35;;;4.78;;
70014;SDS011;57358;51.094;6.760;2023-05-17T02:07:45;4.68;;;4.38;;
70014;SDS011;57358;51.094;6.760;2023-05-17T02:10:11;4.30;;;4.10;;
70014;SDS011;57358;51.094;6.760;2023-05-17T02:12:38;5.03;;;4.72;;
70014;SDS011;57358;51.094;6.760;2023-05-17T02:15:05;4.68;;;4.38;;
70014;SDS011;57358;51.094;6.760;2023-05-17T02:17:33;10.02;;;5.47;;
70014;SDS011;57358;51.094;6.760;2023-05-17T02:19:59;4.82;;;4.53;;
70014;SDS011;57358;51.094;6.760;2023-05-17T02:22:26;5.00;;;4.60;;
70014;SDS011;57358;51.094;6.760;2023-05-17T02:24:52;4.18;;;3.97;;
70014;SDS011;57358;51.094;6.760;2023-05-17T02:27:19;6.93;;;4.93;;
70014;SDS011;57358;51.094;6.760;2023-05-17T02:29:45;5.82;;;5.32;;
70014;SDS011;57358;51.094;6.760;2023-05-17T02:32:12;9.70;;;4.10;;
70014;SDS011;57358;51.094;6.760;2023-05-17T02:34:38;5.00;;;4.50;;
70014;SDS011;57358;51.094;6.760;2023-05-17T02:37:05;4.55;;;4.15;;
70014;SDS011;57358;51.094;6.760;2023-05-17T02:39:32;3.85;;;3.65;;
70014;SDS011;57358;51.094;6.760;2023-05-17T02:41:59;4.70;;;4.40;;
70014;SDS011;57358;51.094;6.760;2023-05-17T02:44:25;4.90;;;4.60;;
70014;SDS011;57358;51.094;6.760;2023-05-17T02:46:52;4.63;;;4.32;;
70014;SDS011;57358;51.094;6.760;2023-05-17T02:49:18;4.55;;;4.13;;
70014;SDS011;57358;51.094;6.760;2023-05-17T02:51:44;4.38;;;4.15;;
70014;SDS011;57358;51.094;6.760;2023-05-17T02:54:11;4.50;;;4.15;;
70014;SDS011;57358;51.094;6.760;2023-05-17T02:56:37;4.10;;;3.90;;
70014;SDS011;57358;51.094;6.760;2023-05-17T02:59:04;4.82;;;4.53;;
70014;SDS011;57358;51.094;6.760;2023-05-17T03:01:30;5.10;;;4.70;;
70014;SDS011;57358;51.094;6.760;2023-05-17T03:03:56;4.75;;;4.43;;
70014;SDS011;57358;51.094;6.760;2023-05-17T03:06:23;4.82;;;4.38;;
70014;SDS011;57358;51.094;6.760;2023-05-17T03:08:50;4.47;;;4.28;;
70014;SDS011;57358;51.094;6.760;2023-05-17T03:11:16;4.32;;;4.13;;
70014;SDS011;57358;51.094;6.760;2023-05-17T03:13:43;4.85;;;4.55;;
70014;SDS011;57358;51.094;6.760;2023-05-17T03:16:11;4.15;;;3.92;;
70014;SDS011;57358;51.094;6.760;2023-05-17T03:18:37;4.80;;;4.50;;
70014;SDS011;57358;51.094;6.760;2023-05-17T03:21:04;5.65;;;4.97;;
70014;SDS011;57358;51.094;6.760;2023-05-17T03:23:31;4.30;;;4.10;;
70014;SDS011;57358;51.094;6.760;2023-05-17T03:25:57;4.70;;;4.40;;
70014;SDS011;57358;51.094;6.760;2023-05-17T03:28:23;4.40;;;4.00;;
70014;SDS011;57358;51.094;6.760;2023-05-17T03:30:50;4.50;;;4.20;;
70014;SDS011;57358;51.094;6.760;2023-05-17T03:33:17;4.53;;;4.22;;
70014;SDS011;57358;51.094;6.760;2023-05-17T03:35:44;4.47;;;4.18;;
70014;SDS011;57358;51.094;6.760;2023-05-17T03:38:13;5.25;;;4.95;;
70014;SDS011;57358;51.094;6.760;2023-05-17T03:40:40;9.95;;;5.07;;
70014;SDS011;57358;51.094;6.760;2023-05-17T03:43:07;5.65;;;4.72;;
70014;SDS011;57358;51.094;6.760;2023-05-17T03:45:33;4.20;;;4.00;;
70014;SDS011;57358;51.094;6.760;2023-05-17T03:48:00;4.88;;;4.47;;
70014;SDS011;57358;51.094;6.760;2023-05-17T03:50:26;6.75;;;4.43;;
70014;SDS011;57358;51.094;6.760;2023-05-17T03:52:53;5.18;;;4.88;;
70014;SDS011;57358;51.094;6.760;2023-05-17T03:55:19;4.10;;;3.90;;
70014;SDS011;57358;51.094;6.760;2023-05-17T03:57:46;4.43;;;4.20;;
70014;SDS011;57358;51.094;6.760;2023-05-17T04:00:12;4.05;;;3.85;;
70014;SDS011;57358;51.094;6.760;2023-05-17T04:02:39;4.97;;;4.55;;
70014;SDS011;57358;51.094;6.760;2023-05-17T04:05:06;4.75;;;4.32;;
70014;SDS011;57358;51.094;6.760;2023-05-17T04:07:33;4.18;;;3.97;;
70014;SDS011;57358;51.094;6.760;2023-05-17T04:09:59;4.82;;;4.53;;
70014;SDS011;57358;51.094;6.760;2023-05-17T04:12:28;5.35;;;5.00;;
70014;SDS011;57358;51.094;6.760;2023-05-17T04:14:54;4.95;;;4.70;;
70014;SDS011;57358;51.094;6.760;2023-05-17T04:17:21;5.13;;;4.72;;
70014;SDS011;57358;51.094;6.760;2023-05-17T04:19:47;5.45;;;4.95;;
70014;SDS011;57358;51.094;6.760;2023-05-17T04:22:14;6.40;;;4.55;;
70014;SDS011;57358;51.094;6.760;2023-05-17T04:24:40;5.28;;;4.90;;
70014;SDS011;57358;51.094;6.760;2023-05-17T04:27:07;5.50;;;4.82;;
70014;SDS011;57358;51.094;6.760;2023-05-17T04:29:36;13.27;;;5.60;;
70014;SDS011;57358;51.094;6.760;2023-05-17T04:32:02;5.15;;;4.80;;
70014;SDS011;57358;51.094;6.760;2023-05-17T04:34:29;7.00;;;5.18;;
70014;SDS011;57358;51.094;6.760;2023-05-17T04:36:57;9.15;;;5.60;;
70014;SDS011;57358;51.094;6.760;2023-05-17T04:39:23;5.20;;;4.75;;
70014;SDS011;57358;51.094;6.760;2023-05-17T04:41:50;5.25;;;4.90;;
70014;SDS011;57358;51.094;6.760;2023-05-17T04:44:16;5.63;;;5.32;;
70014;SDS011;57358;51.094;6.760;2023-05-17T04:46:43;6.70;;;6.15;;
70014;SDS011;57358;51.094;6.760;2023-05-17T04:49:10;8.10;;;5.35;;
70014;SDS011;57358;51.094;6.760;2023-05-17T04:51:37;5.60;;;5.22;;
70014;SDS011;57358;51.094;6.760;2023-05-17T04:54:04;6.90;;;5.63;;
70014;SDS011;57358;51.094;6.760;2023-05-17T04:56:34;7.60;;;6.90;;
70014;SDS011;57358;51.094;6.760;2023-05-17T04:59:01;6.93;;;5.72;;
70014;SDS011;57358;51.094;6.760;2023-05-17T05:01:28;7.22;;;5.55;;
70014;SDS011;57358;51.094;6.760;2023-05-17T05:03:56;5.90;;;5.40;;
70014;SDS011;57358;51.094;6.760;2023-05-17T05:06:23;6.07;;;5.03;;
70014;SDS011;57358;51.094;6.760;2023-05-17T05:08:50;6.35;;;5.95;;
70014;SDS011;57358;51.094;6.760;2023-05-17T05:11:16;5.65;;;5.35;;
70014;SDS011;57358;51.094;6.760;2023-05-17T05:13:43;5.82;;;5.35;;
70014;SDS011;57358;51.094;6.760;2023-05-17T05:16:09;9.52;;;6.18;;
70014;SDS011;57358;51.094;6.760;2023-05-17T05:18:37;7.45;;;6.78;;
70014;SDS011;57358;51.094;6.760;2023-05-17T05:21:03;7.28;;;6.40;;
70014;SDS011;57358;51.094;6.760;2023-05-17T05:23:30;6.13;;;5.63;;
70014;SDS011;57358;51.094;6.760;2023-05-17T05:25:56;9.23;;;5.93;;
70014;SDS011;57358;51.094;6.760;2023-05-17T05:28:23;6.47;;;5.82;;
70014;SDS011;57358;51.094;6.760;2023-05-17T05:30:49;5.53;;;4.95;;
70014;SDS011;57358;51.094;6.760;2023-05-17T05:33:16;6.18;;;5.10;;
70014;SDS011;57358;51.094;6.760;2023-05-17T05:35:43;6.65;;;6.15;;
70014;SDS011;57358;51.094;6.760;2023-05-17T05:38:10;12.27;;;6.13;;
70014;SDS011;57358;51.094;6.760;2023-05-17T05:40:39;8.07;;;6.25;;
70014;SDS011;57358;51.094;6.760;2023-05-17T05:43:06;8.05;;;5.72;;
70014;SDS011;57358;51.094;6.760;2023-05-17T05:45:33;6.43;;;5.57;;
70014;SDS011;57358;51.094;6.760;2023-05-17T05:47:59;9.73;;;6.28;;
70014;SDS011;57358;51.094;6.760;2023-05-17T05:50:26;16.25;;;7.43;;
70014;SDS011;57358;51.094;6.760;2023-05-17T05:52:53;19.63;;;7.90;;
70014;SDS011;57358;51.094;6.760;2023-05-17T05:55:32;12.13;;;7.45;;
70014;SDS011;57358;51.094;6.760;2023-05-17T05:57:58;10.70;;;6.93;;
70014;SDS011;57358;51.094;6.760;2023-05-17T06:00:25;12.32;;;8.00;;
70014;SDS011;57358;51.094;6.760;2023-05-17T06:02:52;10.65;;;7.60;;
70014;SDS011;57358;51.094;6.760;2023-05-17T06:05:19;18.13;;;8.32;;
70014;SDS011;57358;51.094;6.760;2023-05-17T06:07:45;14.07;;;8.65;;
70014;SDS011;57358;51.094;6.760;2023-05-17T06:10:12;11.63;;;8.70;;
70014;SDS011;57358;51.094;6.760;2023-05-17T06:12:38;12.00;;;8.45;;
70014;SDS011;57358;51.094;6.760;2023-05-17T06:15:05;13.95;;;8.27;;
70014;SDS011;57358;51.094;6.760;2023-05-17T06:17:32;25.20;;;9.15;;
70014;SDS011;57358;51.094;6.760;2023-05-17T06:19:59;15.18;;;8.73;;
70014;SDS011;57358;51.094;6.760;2023-05-17T06:22:25;12.88;;;7.93;;
70014;SDS011;57358;51.094;6.760;2023-05-17T06:24:52;11.73;;;7.90;;
70014;SDS011;57358;51.094;6.760;2023-05-17T06:27:18;18.02;;;7.65;;
70014;SDS011;57358;51.094;6.760;2023-05-17T06:29:45;15.35;;;8.20;;
70014;SDS011;57358;51.094;6.760;2023-05-17T06:32:11;9.68;;;6.70;;
70014;SDS011;57358;51.094;6.760;2023-05-17T06:34:37;7.68;;;6.97;;
70014;SDS011;57358;51.094;6.760;2023-05-17T06:37:05;9.63;;;7.13;;
70014;SDS011;57358;51.094;6.760;2023-05-17T06:39:31;11.27;;;6.28;;
70014;SDS011;57358;51.094;6.760;2023-05-17T06:41:58;11.82;;;7.45;;
70014;SDS011;57358;51.094;6.760;2023-05-17T06:44:24;8.30;;;7.22;;
70014;SDS011;57358;51.094;6.760;2023-05-17T06:46:51;9.05;;;6.93;;
70014;SDS011;57358;51.094;6.760;2023-05-17T06:49:17;13.25;;;6.68;;
70014;SDS011;57358;51.094;6.760;2023-05-17T06:51:43;7.55;;;6.75;;
70014;SDS011;57358;51.094;6.760;2023-05-17T06:54:10;14.75;;;6.90;;
70014;SDS011;57358;51.094;6.760;2023-05-17T06:56:36;8.93;;;6.57;;
70014;SDS011;57358;51.094;6.760;2023-05-17T06:59:03;8.38;;;7.68;;
70014;SDS011;57358;51.094;6.760;2023-05-17T07:01:29;11.15;;;6.03;;
70014;SDS011;57358;51.094;6.760;2023-05-17T07:03:56;7.40;;;6.53;;
70014;SDS011;57358;51.094;6.760;2023-05-17T07:06:23;11.15;;;6.85;;
70014;SDS011;57358;51.094;6.760;2023-05-17T07:08:49;12.52;;;6.65;;
70014;SDS011;57358;51.094;6.760;2023-05-17T07:11:16;7.72;;;5.85;;
70014;SDS011;57358;51.094;6.760;2023-05-17T07:13:42;9.45;;;7.35;;
70014;SDS011;57358;51.094;6.760;2023-05-17T07:16:09;6.38;;;5.78;;
70014;SDS011;57358;51.094;6.760;2023-05-17T07:18:35;10.45;;;6.55;;
70014;SDS011;57358;51.094;6.760;2023-05-17T07:21:02;8.88;;;7.07;;
70014;SDS011;57358;51.094;6.760;2023-05-17T07:23:29;6.30;;;5.72;;
70014;SDS011;57358;51.094;6.760;2023-05-17T07:25:55;8.57;;;6.18;;
70014;SDS011;57358;51.094;6.760;2023-05-17T07:28:22;13.40;;;6.32;;
70014;SDS011;57358;51.094;6.760;2023-05-17T07:30:49;12.48;;;6.28;;
70014;SDS011;57358;51.094;6.760;2023-05-17T07:33:15;12.18;;;6.03;;
70014;SDS011;57358;51.094;6.760;2023-05-17T07:35:42;8.70;;;6.30;;
70014;SDS011;57358;51.094;6.760;2023-05-17T07:38:08;8.85;;;6.45;;
70014;SDS011;57358;51.094;6.760;2023-05-17T07:40:35;8.57;;;6.30;;
70014;SDS011;57358;51.094;6.760;2023-05-17T07:43:02;8.15;;;6.10;;
70014;SDS011;57358;51.094;6.760;2023-05-17T07:45:28;11.93;;;6.13;;
70014;SDS011;57358;51.094;6.760;2023-05-17T07:47:55;6.93;;;5.55;;
70014;SDS011;57358;51.094;6.760;2023-05-17T07:50:22;6.70;;;5.22;;
70014;SDS011;57358;51.094;6.760;2023-05-17T07:52:48;9.30;;;5.70;;
70014;SDS011;57358;51.094;6.760;2023-05-17T07:55:15;10.63;;;4.72;;
70014;SDS011;57358;51.094;6.760;2023-05-17T07:57:51;9.15;;;5.38;;
70014;SDS011;57358;51.094;6.760;2023-05-17T08:00:17;9.45;;;5.35;;
70014;SDS011;57358;51.094;6.760;2023-05-17T08:02:44;8.68;;;5.60;;
70014;SDS011;57358;51.094;6.760;2023-05-17T08:05:11;8.48;;;5.78;;
70014;SDS011;57358;51.094;6.760;2023-05-17T08:07:38;5.18;;;4.85;;
70014;SDS011;57358;51.094;6.760;2023-05-17T08:10:04;5.88;;;5.18;;
70014;SDS011;57358;51.094;6.760;2023-05-17T08:12:31;10.50;;;6.15;;
70014;SDS011;57358;51.094;6.760;2023-05-17T08:14:58;5.78;;;5.38;;
70014;SDS011;57358;51.094;6.760;2023-05-17T08:17:25;5.70;;;5.32;;
70014;SDS011;57358;51.094;6.760;2023-05-17T08:19:51;10.23;;;5.45;;
70014;SDS011;57358;51.094;6.760;2023-05-17T08:22:19;6.35;;;5.30;;
70014;SDS011;57358;51.094;6.760;2023-05-17T08:24:46;6.05;;;5.75;;
70014;SDS011;57358;51.094;6.760;2023-05-17T08:27:12;5.15;;;4.75;;
70014;SDS011;57358;51.094;6.760;2023-05-17T08:29:39;6.55;;;4.85;;
70014;SDS011;57358;51.094;6.760;2023-05-17T08:32:05;8.18;;;4.85;;
70014;SDS011;57358;51.094;6.760;2023-05-17T08:34:32;6.47;;;4.57;;
70014;SDS011;57358;51.094;6.760;2023-05-17T08:36:58;6.65;;;6.15;;
70014;SDS011;57358;51.094;6.760;2023-05-17T08:39:25;4.90;;;4.63;;
70014;SDS011;57358;51.094;6.760;2023-05-17T08:41:51;9.15;;;5.07;;
70014;SDS011;57358;51.094;6.760;2023-05-17T08:44:18;6.90;;;5.45;;
70014;SDS011;57358;51.094;6.760;2023-05-17T08:46:45;6.10;;;4.97;;
70014;SDS011;57358;51.094;6.760;2023-05-17T08:49:19;7.03;;;6.50;;
70014;SDS011;57358;51.094;6.760;2023-05-17T08:51:48;14.77;;;5.55;;
70014;SDS011;57358;51.094;6.760;2023-05-17T08:54:15;15.02;;;5.45;;
70014;SDS011;57358;51.094;6.760;2023-05-17T08:56:42;6.05;;;5.55;;
70014;SDS011;57358;51.094;6.760;2023-05-17T08:59:09;5.47;;;5.07;;
70014;SDS011;57358;51.094;6.760;2023-05-17T09:01:39;9.00;;;5.45;;
70014;SDS011;57358;51.094;6.760;2023-05-17T09:04:08;5.68;;;5.15;;
70014;SDS011;57358;51.094;6.760;2023-05-17T09:06:36;8.10;;;5.68;;
70014;SDS011;57358;51.094;6.760;2023-05-17T09:09:03;17.90;;;6.28;;
70014;SDS011;57358;51.094;6.760;2023-05-17T09:11:32;11.55;;;6.00;;
70014;SDS011;57358;51.094;6.760;2023-05-17T09:14:02;14.82;;;5.53;;
70014;SDS011;57358;51.094;6.760;2023-05-17T09:16:31;8.48;;;5.22;;
70014;SDS011;57358;51.094;6.760;2023-05-17T09:18:58;6.57;;;6.13;;
70014;SDS011;57358;51.094;6.760;2023-05-17T09:21:26;7.90;;;6.22;;
70014;SDS011;57358;51.094;6.760;2023-05-17T09:23:54;8.38;;;6.13;;
70014;SDS011;57358;51.094;6.760;2023-05-17T09:26:24;9.15;;;5.45;;
70014;SDS011;57358;51.094;6.760;2023-05-17T09:28:51;5.70;;;5.30;;
70014;SDS011;57358;51.094;6.760;2023-05-17T09:31:18;11.45;;;6.65;;
70014;SDS011;57358;51.094;6.760;2023-05-17T09:33:45;6.53;;;6.05;;
70014;SDS011;57358;51.094;6.760;2023-05-17T09:36:21;5.70;;;5.20;;
70014;SDS011;57358;51.094;6.760;2023-05-17T09:38:54;5.78;;;4.90;;
70014;SDS011;57358;51.094;6.760;2023-05-17T09:41:27;6.97;;;6.25;;
70014;SDS011;57358;51.094;6.760;2023-05-17T09:43:59;6.87;;;6.30;;
70014;SDS011;57358;51.094;6.760;2023-05-17T09:46:27;6.05;;;5.65;;
70014;SDS011;57358;51.094;6.760;2023-05-17T09:48:59;6.18;;;5.65;;
70014;SDS011;57358;51.094;6.760;2023-05-17T09:51:33;6.10;;;5.50;;
70014;SDS011;57358;51.094;6.760;2023-05-17T09:54:10;6.07;;;5.63;;
70014;SDS011;57358;51.094;6.760;2023-05-17T09:56:37;9.90;;;6.00;;
70014;SDS011;57358;51.094;6.760;2023-05-17T09:59:09;9.30;;;5.45;;
70014;SDS011;57358;51.094;6.760;2023-05-17T10:01:38;5.57;;;5.07;;
70014;SDS011;57358;51.094;6.760;2023-05-17T10:04:08;8.30;;;5.50;;
70014;SDS011;57358;51.094;6.760;2023-05-17T10:06:39;6.30;;;5.40;;
70014;SDS011;57358;51.094;6.760;2023-05-17T10:09:11;6.00;;;5.53;;
70014;SDS011;57358;51.094;6.760;2023-05-17T10:11:39;6.57;;;5.65;;
70014;SDS011;57358;51.094;6.760;2023-05-17T10:16:53;18.25;;;16.52;;
70014;SDS011;57358;51.094;6.760;2023-05-17T10:19:21;5.50;;;5.13;;
70014;SDS011;57358;51.094;6.760;2023-05-17T10:21:50;10.68;;;5.85;;
70014;SDS011;57358;51.094;6.760;2023-05-17T10:24:18;5.43;;;4.97;;
70014;SDS011;57358;51.094;6.760;2023-05-17T10:26:45;6.22;;;5.72;;
70014;SDS011;57358;51.094;6.760;2023-05-17T10:29:12;6.38;;;5.88;;
70014;SDS011;57358;51.094;6.760;2023-05-17T10:31:38;6.95;;;5.32;;
70014;SDS011;57358;51.094;6.760;2023-05-17T10:34:06;5.95;;;5.40;;
70014;SDS011;57358;51.094;6.760;2023-05-17T10:36:35;9.13;;;5.93;;
70014;SDS011;57358;51.094;6.760;2023-05-17T10:39:04;5.88;;;5.35;;
70014;SDS011;57358;51.094;6.760;2023-05-17T10:41:33;5.45;;;5.13;;
70014;SDS011;57358;51.094;6.760;2023-05-17T10:44:02;6.65;;;5.75;;
70014;SDS011;57358;51.094;6.760;2023-05-17T10:46:30;7.10;;;5.93;;
70014;SDS011;57358;51.094;6.760;2023-05-17T10:48:57;6.35;;;5.72;;
70014;SDS011;57358;51.094;6.760;2023-05-17T10:51:28;5.63;;;5.32;;
70014;SDS011;57358;51.094;6.760;2023-05-17T10:54:12;6.55;;;5.53;;
70014;SDS011;57358;51.094;6.760;2023-05-17T10:56:47;7.32;;;5.85;;
70014;SDS011;57358;51.094;6.760;2023-05-17T10:59:16;7.60;;;5.63;;
70014;SDS011;57358;51.094;6.760;2023-05-17T11:04:23;9.57;;;5.43;;
70014;SDS011;57358;51.094;6.760;2023-05-17T11:06:52;6.00;;;5.60;;
70014;SDS011;57358;51.094;6.760;2023-05-17T11:09:53;6.78;;;5.85;;
70014;SDS011;57358;51.094;6.760;2023-05-17T11:12:32;5.72;;;5.32;;
70014;SDS011;57358;51.094;6.760;2023-05-17T11:22:58;6.17;;;5.57;;
70014;SDS011;57358;51.094;6.760;2023-05-17T11:25:33;13.32;;;5.38;;
70014;SDS011;57358;51.094;6.760;2023-05-17T11:28:16;5.63;;;5.22;;
70014;SDS011;57358;51.094;6.760;2023-05-17T11:30:44;6.00;;;5.60;;
70014;SDS011;57358;51.094;6.760;2023-05-17T11:33:20;10.10;;;5.30;;
70014;SDS011;57358;51.094;6.760;2023-05-17T11:36:04;5.55;;;5.18;;
70014;SDS011;57358;51.094;6.760;2023-05-17T11:38:32;6.47;;;5.50;;
70014;SDS011;57358;51.094;6.760;2023-05-17T11:41:14;7.78;;;5.50;;
70014;SDS011;57358;51.094;6.760;2023-05-17T11:43:52;12.63;;;5.90;;
70014;SDS011;57358;51.094;6.760;2023-05-17T11:46:22;7.35;;;5.93;;
70014;SDS011;57358;51.094;6.760;2023-05-17T11:48:50;9.75;;;5.72;;
70014;SDS011;57358;51.094;6.760;2023-05-17T11:51:18;6.80;;;5.70;;
70014;SDS011;57358;51.094;6.760;2023-05-17T11:53:48;6.82;;;6.10;;
70014;SDS011;57358;51.094;6.760;2023-05-17T11:56:15;7.22;;;6.10;;
70014;SDS011;57358;51.094;6.760;2023-05-17T11:58:45;6.38;;;5.88;;
70014;SDS011;57358;51.094;6.760;2023-05-17T12:01:18;6.95;;;5.68;;
70014;SDS011;57358;51.094;6.760;2023-05-17T12:03:45;6.10;;;5.60;;
70014;SDS011;57358;51.094;6.760;2023-05-17T12:06:13;6.05;;;5.25;;
70014;SDS011;57358;51.094;6.760;2023-05-17T12:08:42;5.50;;;5.20;;
70014;SDS011;57358;51.094;6.760;2023-05-17T12:11:10;8.55;;;5.93;;
70014;SDS011;57358;51.094;6.760;2023-05-17T12:13:39;6.05;;;5.50;;
70014;SDS011;57358;51.094;6.760;2023-05-17T12:16:11;5.68;;;5.28;;
70014;SDS011;57358;51.094;6.760;2023-05-17T12:18:43;5.47;;;5.07;;
70014;SDS011;57358;51.094;6.760;2023-05-17T12:21:15;5.35;;;5.00;;
70014;SDS011;57358;51.094;6.760;2023-05-17T12:23:47;5.50;;;5.10;;
70014;SDS011;57358;51.094;6.760;2023-05-17T12:26:20;5.65;;;5.15;;
70014;SDS011;57358;51.094;6.760;2023-05-17T12:31:24;5.53;;;5.22;;
70014;SDS011;57358;51.094;6.760;2023-05-17T12:33:54;6.43;;;5.82;;
70014;SDS011;57358;51.094;6.760;2023-05-17T12:36:21;5.97;;;5.35;;
70014;SDS011;57358;51.094;6.760;2023-05-17T12:38:48;6.47;;;5.90;;
70014;SDS011;57358;51.094;6.760;2023-05-17T12:41:15;6.18;;;5.78;;
70014;SDS011;57358;51.094;6.760;2023-05-17T12:43:43;6.05;;;5.57;;
70014;SDS011;57358;51.094;6.760;2023-05-17T12:46:11;5.60;;;5.20;;
70014;SDS011;57358;51.094;6.760;2023-05-17T12:48:40;5.50;;;5.20;;
70014;SDS011;57358;51.094;6.760;2023-05-17T12:51:11;6.05;;;5.65;;
70014;SDS011;57358;51.094;6.760;2023-05-17T12:53:39;6.20;;;5.80;;
70014;SDS011;57358;51.094;6.760;2023-05-17T12:56:10;9.65;;;6.07;;
70014;SDS011;57358;51.094;6.760;2023-05-17T12:58:41;5.35;;;4.97;;
70014;SDS011;57358;51.094;6.760;2023-05-17T13:01:07;10.27;;;5.90;;
70014;SDS011;57358;51.094;6.760;2023-05-17T13:03:39;6.20;;;5.68;;
70014;SDS011;57358;51.094;6.760;2023-05-17T13:06:07;5.97;;;5.32;;
70014;SDS011;57358;51.094;6.760;2023-05-17T13:08:35;5.80;;;5.30;;
70014;SDS011;57358;51.094;6.760;2023-05-17T13:11:12;7.70;;;5.82;;
70014;SDS011;57358;51.094;6.760;2023-05-17T13:13:39;6.00;;;5.60;;
70014;SDS011;57358;51.094;6.760;2023-05-17T13:16:07;5.90;;;5.47;;
70014;SDS011;57358;51.094;6.760;2023-05-17T13:18:46;7.03;;;5.20;;
70014;SDS011;57358;51.094;6.760;2023-05-17T13:21:14;5.68;;;5.28;;
70014;SDS011;57358;51.094;6.760;2023-05-17T13:23:44;11.57;;;5.40;;
70014;SDS011;57358;51.094;6.760;2023-05-17T13:26:12;7.82;;;5.88;;
70014;SDS011;57358;51.094;6.760;2023-05-17T13:28:38;6.07;;;5.50;;
70014;SDS011;57358;51.094;6.760;2023-05-17T13:31:05;5.57;;;5.20;;
70014;SDS011;57358;51.094;6.760;2023-05-17T13:33:32;5.28;;;4.97;;
70014;SDS011;57358;51.094;6.760;2023-05-17T13:35:58;8.80;;;5.78;;
70014;SDS011;57358;51.094;6.760;2023-05-17T13:38:25;5.55;;;5.13;;
70014;SDS011;57358;51.094;6.760;2023-05-17T13:40:51;5.75;;;5.35;;
70014;SDS011;57358;51.094;6.760;2023-05-17T13:43:18;5.72;;;5.32;;
70014;SDS011;57358;51.094;6.760;2023-05-17T13:45:44;7.55;;;5.30;;
70014;SDS011;57358;51.094;6.760;2023-05-17T13:48:11;6.00;;;5.43;;
70014;SDS011;57358;51.094;6.760;2023-05-17T13:50:37;7.68;;;5.43;;
70014;SDS011;57358;51.094;6.760;2023-05-17T13:53:04;5.38;;;5.07;;
70014;SDS011;57358;51.094;6.760;2023-05-17T13:55:31;6.03;;;5.47;;
70014;SDS011;57358;51.094;6.760;2023-05-17T13:57:57;7.90;;;5.85;;
70014;SDS011;57358;51.094;6.760;2023-05-17T14:00:24;9.70;;;5.60;;
70014;SDS011;57358;51.094;6.760;2023-05-17T14:02:50;6.22;;;5.63;;
70014;SDS011;57358;51.094;6.760;2023-05-17T14:05:17;5.45;;;5.03;;
70014;SDS011;57358;51.094;6.760;2023-05-17T14:07:43;5.97;;;5.30;;
70014;SDS011;57358;51.094;6.760;2023-05-17T14:10:11;7.43;;;5.80;;
70014;SDS011;57358;51.094;6.760;2023-05-17T14:12:38;5.93;;;5.50;;
70014;SDS011;57358;51.094;6.760;2023-05-17T14:15:07;9.35;;;6.30;;
70014;SDS011;57358;51.094;6.760;2023-05-17T14:17:35;5.72;;;5.25;;
70014;SDS011;57358;51.094;6.760;2023-05-17T14:20:02;6.03;;;5.63;;
70014;SDS011;57358;51.094;6.760;2023-05-17T14:22:30;5.72;;;5.40;;
70014;SDS011;57358;51.094;6.760;2023-05-17T14:24:56;5.72;;;5.40;;
70014;SDS011;57358;51.094;6.760;2023-05-17T14:27:23;5.80;;;5.22;;
70014;SDS011;57358;51.094;6.760;2023-05-17T14:29:49;6.40;;;5.80;;
70014;SDS011;57358;51.094;6.760;2023-05-17T14:32:15;7.18;;;5.20;;
70014;SDS011;57358;51.094;6.760;2023-05-17T14:34:42;6.55;;;5.93;;
70014;SDS011;57358;51.094;6.760;2023-05-17T14:37:08;8.60;;;6.22;;
70014;SDS011;57358;51.094;6.760;2023-05-17T14:39:35;5.40;;;5.07;;
70014;SDS011;57358;51.094;6.760;2023-05-17T14:42:02;6.72;;;5.85;;
70014;SDS011;57358;51.094;6.760;2023-05-17T14:44:28;8.68;;;5.68;;
70014;SDS011;57358;51.094;6.760;2023-05-17T14:46:56;6.00;;;5.60;;
70014;SDS011;57358;51.094;6.760;2023-05-17T14:49:22;5.47;;;5.07;;
70014;SDS011;57358;51.094;6.760;2023-05-17T14:51:49;5.95;;;5.43;;
70014;SDS011;57358;51.094;6.760;2023-05-17T14:54:15;8.30;;;5.75;;
70014;SDS011;57358;51.094;6.760;2023-05-17T14:56:42;6.65;;;5.82;;
70014;SDS011;57358;51.094;6.760;2023-05-17T14:59:11;7.15;;;6.43;;
70014;SDS011;57358;51.094;6.760;2023-05-17T15:01:37;6.22;;;5.75;;
70014;SDS011;57358;51.094;6.760;2023-05-17T15:04:04;6.10;;;5.68;;
70014;SDS011;57358;51.094;6.760;2023-05-17T15:06:30;6.55;;;5.88;;
70014;SDS011;57358;51.094;6.760;2023-05-17T15:08:57;7.43;;;5.72;;
70014;SDS011;57358;51.094;6.760;2023-05-17T15:11:25;5.43;;;5.13;;
70014;SDS011;57358;51.094;6.760;2023-05-17T15:13:51;5.82;;;5.43;;
70014;SDS011;57358;51.094;6.760;2023-05-17T15:16:17;6.10;;;5.60;;
70014;SDS011;57358;51.094;6.760;2023-05-17T15:18:44;6.18;;;5.70;;
70014;SDS011;57358;51.094;6.760;2023-05-17T15:21:11;5.90;;;5.30;;
70014;SDS011;57358;51.094;6.760;2023-05-17T15:23:38;8.27;;;5.50;;